Time;durP1;ratioP1;P1;durP2;ratioP2;P2;SDS_P1;SDS_P2;PMS_P1;PMS_P2;Temp;Humidity;BMP_temperature;BMP_pressure;BME280_temperature;BME280_humidity;BME280_pressure;Samples;Min_cycle;Max_cycle;Signal;HPM_P1;HPM_P2
2020/12/02 00:00:32;;;;;;;35.13;12.55;;;;;;;-0.22;95.48;100411.74;1760469;81;21886;-78
2020/12/02 00:03:23;;;;;;;24.80;11.53;;;;;;;-0.20;95.41;100413.69;1761294;81;21104;-78
2020/12/02 00:05:54;;;;;;;30.12;12.82;;;;;;;-0.21;95.36;100414.74;1761196;81;22663;-76
2020/12/02 00:08:35;;;;;;;22.40;10.80;;;;;;;-0.21;95.26;100416.09;1759778;81;20966;-75
2020/12/02 00:11:09;;;;;;;25.82;12.25;;;;;;;-0.20;95.27;100417.73;1751979;81;20947;-76
2020/12/02 00:13:43;;;;;;;26.62;11.93;;;;;;;-0.20;95.20;100415.04;1751961;82;21592;-76
2020/12/02 00:16:21;;;;;;;25.00;12.75;;;;;;;-0.20;95.20;100418.56;1752151;81;21025;-76
2020/12/02 00:18:52;;;;;;;25.40;12.33;;;;;;;-0.22;95.20;100412.56;1752031;81;21392;-76
2020/12/02 00:21:22;;;;;;;28.27;12.55;;;;;;;-0.20;95.30;100425.31;1751994;82;21181;-76
2020/12/02 00:23:53;;;;;;;25.00;12.00;;;;;;;-0.20;95.33;100421.27;1752029;82;21014;-77
2020/12/02 00:26:21;;;;;;;22.90;11.90;;;;;;;-0.19;95.26;100427.48;1752022;82;21034;-76
2020/12/02 00:28:50;;;;;;;25.15;11.97;;;;;;;-0.19;95.21;100422.91;1752063;80;21529;-78
2020/12/02 00:31:19;;;;;;;24.60;11.80;;;;;;;-0.17;95.24;100426.73;1752008;82;21208;-89
2020/12/02 00:33:48;;;;;;;25.95;11.90;;;;;;;-0.13;95.28;100426.59;1725109;82;20983;-85
2020/12/02 00:36:17;;;;;;;26.30;12.70;;;;;;;-0.14;95.21;100426.29;1752120;82;21477;-85
2020/12/02 00:38:45;;;;;;;24.92;12.68;;;;;;;-0.15;95.20;100425.47;1752043;82;20954;-86
2020/12/02 00:41:13;;;;;;;26.42;12.50;;;;;;;-0.14;95.29;100423.59;1752052;82;21077;-82
2020/12/02 00:43:41;;;;;;;28.38;12.85;;;;;;;-0.12;95.35;100428.23;1752027;82;22782;-82
2020/12/02 00:46:09;;;;;;;26.87;13.03;;;;;;;-0.10;95.34;100420.22;1751955;82;21034;-82
2020/12/02 00:48:37;;;;;;;22.87;12.10;;;;;;;-0.10;95.20;100416.17;1700992;82;20947;-82
2020/12/02 00:51:06;;;;;;;24.75;12.18;;;;;;;-0.11;95.06;100418.57;1752009;82;21508;-82
2020/12/02 00:53:35;;;;;;;25.30;12.78;;;;;;;-0.10;95.06;100416.70;1752046;82;20958;-82
2020/12/02 00:56:06;;;;;;;24.80;12.37;;;;;;;-0.12;95.01;100414.75;1752111;81;22255;-82
2020/12/02 00:59:02;;;;;;;26.82;12.50;;;;;;;-0.13;95.09;100417.97;1751944;81;21102;-81
2020/12/02 01:01:41;;;;;;;22.73;11.03;;;;;;;-0.13;95.10;100417.14;1752023;82;21013;-81
2020/12/02 01:04:16;;;;;;;25.35;11.73;;;;;;;-0.14;95.09;100415.50;1729719;82;21034;-82
2020/12/02 01:06:46;;;;;;;24.85;11.63;;;;;;;-0.17;94.98;100415.42;1752117;82;21528;-82
2020/12/02 01:09:15;;;;;;;23.40;10.50;;;;;;;-0.18;94.99;100413.77;1756736;81;21369;-82
2020/12/02 01:11:44;;;;;;;24.15;12.00;;;;;;;-0.17;95.01;100411.89;1765681;81;20953;-81
2020/12/02 01:14:15;;;;;;;21.95;11.03;;;;;;;-0.19;94.98;100410.77;1765793;81;21577;-81
2020/12/02 01:16:48;;;;;;;27.35;12.85;;;;;;;-0.21;95.01;100412.04;1766056;81;21492;-81
2020/12/02 01:19:24;;;;;;;22.55;10.82;;;;;;;-0.21;95.07;100410.69;1765731;81;21068;-81
2020/12/02 01:22:24;;;;;;;22.45;10.35;;;;;;;-0.20;95.30;100407.77;1765764;81;21200;-81
2020/12/02 01:25:15;;;;;;;21.27;11.48;;;;;;;-0.19;95.30;100406.72;1765691;81;20918;-81
2020/12/02 01:28:03;;;;;;;21.80;11.30;;;;;;;-0.17;95.23;100407.84;1765657;80;21084;-83
2020/12/02 01:30:35;;;;;;;21.73;10.95;;;;;;;-0.15;95.19;100403.88;1733822;81;21014;-83
2020/12/02 01:33:16;;;;;;;;;;;;;;;-0.15;95.07;100399.00;1768340;81;21084;-83
2020/12/02 01:35:47;;;;;;;20.80;10.53;;;;;;;-0.15;95.02;100396.30;1765786;81;21262;-83
2020/12/02 01:38:22;;;;;;;21.15;11.03;;;;;;;-0.17;95.01;100395.17;1765696;81;21615;-81
2020/12/02 01:40:50;;;;;;;21.52;11.65;;;;;;;-0.19;95.01;100399.97;1765729;81;20981;-79
2020/12/02 01:43:17;;;;;;;27.70;13.13;;;;;;;-0.20;95.02;100389.41;1733944;81;21175;-80
2020/12/02 01:45:49;;;;;;;27.95;13.30;;;;;;;-0.19;95.02;100390.53;1765773;81;20938;-82
2020/12/02 01:48:29;;;;;;;24.55;11.20;;;;;;;-0.19;94.97;100387.00;1765802;81;21336;-82
2020/12/02 01:51:08;;;;;;;23.55;12.78;;;;;;;-0.19;94.93;100385.13;1765718;81;21068;-79
2020/12/02 01:54:10;;;;;;;28.12;13.65;;;;;;;-0.20;94.88;100383.48;1765173;81;20957;-78
2020/12/02 01:57:04;;;;;;;24.92;12.98;;;;;;;-0.21;94.92;100381.01;1764944;81;21615;-79
2020/12/02 02:00:08;;;;;;;25.92;13.48;;;;;;;-0.20;94.90;100374.03;1765819;81;20950;-79
2020/12/02 02:03:09;;;;;;;29.30;13.48;;;;;;;-0.21;94.89;100364.81;1765852;81;21663;-81
2020/12/02 02:06:00;;;;;;;24.32;11.88;;;;;;;-0.24;94.86;100372.84;1765910;81;21504;-81
2020/12/02 02:08:31;;;;;;;21.95;11.93;;;;;;;-0.24;94.90;100367.96;1766291;81;21164;-81
2020/12/02 02:11:03;;;;;;;24.43;11.97;;;;;;;-0.26;94.89;100364.14;1776897;80;21279;-78
2020/12/02 02:13:54;;;;;;;26.25;12.95;;;;;;;-0.25;94.90;100360.39;1777327;80;20953;-78
2020/12/02 02:16:30;;;;;;;28.25;12.80;;;;;;;-0.24;94.91;100366.09;1776463;80;21217;-77
2020/12/02 02:18:59;;;;;;;31.00;13.72;;;;;;;-0.24;94.92;100366.09;1775731;80;21131;-77
2020/12/02 02:21:31;;;;;;;27.48;13.00;;;;;;;-0.24;94.92;100362.56;1775807;80;21056;-77
2020/12/02 02:23:59;;;;;;;30.72;13.68;;;;;;;-0.25;94.85;100365.79;1775915;80;21025;-76
2020/12/02 02:26:41;;;;;;;23.98;12.43;;;;;;;-0.23;94.89;100364.22;1775177;80;21058;-77
2020/12/02 02:29:33;;;;;;;28.32;12.70;;;;;;;-0.22;94.88;100365.34;1774407;79;21384;-77
2020/12/02 02:32:14;;;;;;;23.98;13.05;;;;;;;-0.22;94.88;100368.04;1748676;80;22631;-77
2020/12/02 02:34:51;;;;;;;25.57;12.25;;;;;;;-0.23;94.87;100363.69;1774549;80;20937;-76
2020/12/02 02:37:20;;;;;;;23.20;10.88;;;;;;;-0.21;94.95;100370.21;1774548;80;20989;-77
2020/12/02 02:39:49;;;;;;;23.95;12.50;;;;;;;-0.20;95.03;100371.86;1774631;80;21151;-82
2020/12/02 02:42:34;;;;;;;23.87;11.68;;;;;;;-0.20;94.98;100373.21;1774648;80;21369;-83
2020/12/02 02:45:08;;;;;;;20.62;10.32;;;;;;;-0.20;94.90;100371.86;1774651;80;21100;-83
2020/12/02 02:47:36;;;;;;;20.62;10.38;;;;;;;-0.20;94.91;100370.52;1775085;80;20890;-79
2020/12/02 02:50:08;;;;;;;20.85;10.08;;;;;;;-0.17;94.97;100374.11;1774771;80;20938;-78
2020/12/02 02:52:37;;;;;;;23.02;11.08;;;;;;;-0.19;94.83;100372.98;1774213;80;20969;-84
2020/12/02 02:55:11;;;;;;;25.77;10.35;;;;;;;-0.20;94.91;100374.03;1774492;80;21199;-85
2020/12/02 02:57:40;;;;;;;18.82;9.85;;;;;;;-0.21;94.85;100375.61;1774660;80;20989;-85
2020/12/02 03:00:12;;;;;;;18.85;9.50;;;;;;;-0.24;94.77;100376.88;1774507;80;21623;-85
2020/12/02 03:02:40;;;;;;;18.92;9.80;;;;;;;-0.25;94.78;100374.41;1774683;80;21124;-84
2020/12/02 03:05:08;;;;;;;19.77;10.32;;;;;;;-0.26;94.78;100376.81;1746736;80;21032;-84
2020/12/02 03:07:36;;;;;;;19.87;10.23;;;;;;;-0.28;94.69;100379.73;1774495;80;21361;-84
2020/12/02 03:10:04;;;;;;;19.65;9.55;;;;;;;-0.31;94.75;100378.00;1740779;81;21078;-84
2020/12/02 03:12:32;;;;;;;25.43;11.65;;;;;;;-0.34;94.78;100386.02;1761224;81;20951;-83
2020/12/02 03:15:00;;;;;;;24.80;12.82;;;;;;;-0.35;94.81;100387.07;1761239;81;21022;-84
2020/12/02 03:17:27;;;;;;;21.33;11.18;;;;;;;-0.35;94.84;100386.55;1761244;81;21151;-79
2020/12/02 03:20:00;;;;;;;23.35;11.55;;;;;;;-0.31;94.88;100387.45;1761194;81;21378;-79
2020/12/02 03:22:29;;;;;;;24.72;11.20;;;;;;;-0.30;94.93;100387.23;1761258;81;21010;-84
2020/12/02 03:24:57;;;;;;;20.62;10.85;;;;;;;-0.29;94.85;100384.83;1709566;81;21490;-83
2020/12/02 03:27:25;;;;;;;19.12;10.95;;;;;;;-0.30;94.82;100389.09;1761146;80;21235;-82
2020/12/02 03:29:54;;;;;;;21.73;10.90;;;;;;;-0.31;94.88;100389.63;1761170;81;21060;-82
2020/12/02 03:32:22;;;;;;;23.12;11.45;;;;;;;-0.31;94.89;100382.87;1761208;81;21374;-79
2020/12/02 03:34:50;;;;;;;19.62;10.53;;;;;;;-0.31;94.92;100386.10;1761433;81;21013;-81
2020/12/02 03:37:17;;;;;;;23.45;10.15;;;;;;;-0.29;94.94;100388.05;1761218;81;21080;-84
2020/12/02 03:39:46;;;;;;;22.75;10.60;;;;;;;-0.30;94.93;100381.00;1761270;81;20946;-84
2020/12/02 03:42:14;;;;;;;20.80;9.95;;;;;;;-0.30;94.92;100383.70;1761235;81;21077;-85
2020/12/02 03:44:42;;;;;;;21.77;10.75;;;;;;;-0.28;94.99;100380.25;1733750;81;21825;-85
2020/12/02 03:47:09;;;;;;;19.67;9.68;;;;;;;-0.27;94.97;100373.81;1761148;81;21022;-79
2020/12/02 03:49:37;;;;;;;19.60;9.00;;;;;;;-0.31;94.91;100372.08;1733418;81;21262;-79
2020/12/02 03:52:05;;;;;;;15.25;7.87;;;;;;;-0.31;95.06;100382.87;1761252;81;21485;-84
2020/12/02 03:54:33;;;;;;;14.25;6.35;;;;;;;-0.30;95.05;100385.05;1761188;81;21520;-84
2020/12/02 03:57:01;;;;;;;14.38;7.58;;;;;;;-0.30;95.03;100383.17;1761517;81;21389;-84
2020/12/02 03:59:29;;;;;;;11.90;6.50;;;;;;;-0.30;94.97;100375.61;1761165;81;21014;-87
2020/12/02 04:01:57;;;;;;;11.40;6.03;;;;;;;-0.31;94.91;100377.48;1761166;81;21057;-81
2020/12/02 04:04:25;;;;;;;11.63;6.28;;;;;;;-0.31;94.96;100382.05;1761145;81;21077;-79
2020/12/02 04:06:53;;;;;;;13.03;6.87;;;;;;;-0.35;94.91;100383.84;1761143;81;21064;-81
2020/12/02 04:09:20;;;;;;;11.60;6.58;;;;;;;-0.37;94.97;100381.90;1760920;81;21207;-76
2020/12/02 04:11:48;;;;;;;11.18;6.28;;;;;;;-0.38;95.05;100387.52;1751985;81;21199;-80
2020/12/02 04:14:16;;;;;;;10.45;5.42;;;;;;;-0.39;95.07;100385.87;1751976;82;21057;-84
2020/12/02 04:16:43;;;;;;;8.80;5.05;;;;;;;-0.37;95.11;100382.42;1752091;81;21061;-77
2020/12/02 04:19:11;;;;;;;8.48;5.05;;;;;;;-0.37;95.04;100384.59;1752114;82;21041;-81
2020/12/02 04:21:39;;;;;;;8.23;4.78;;;;;;;-0.38;94.93;100384.81;1752001;82;21369;-80
2020/12/02 04:24:06;;;;;;;11.43;5.33;;;;;;;-0.40;94.95;100384.22;1751964;82;20939;-80
2020/12/02 04:26:34;;;;;;;9.10;5.22;;;;;;;-0.40;95.00;100383.70;1752018;82;20959;-87
2020/12/02 04:29:03;;;;;;;9.13;5.33;;;;;;;-0.40;94.98;100389.09;1751886;80;21139;-81
2020/12/02 04:31:31;;;;;;;9.63;5.17;;;;;;;-0.40;95.00;100390.96;1752051;81;21536;-78
2020/12/02 04:33:59;;;;;;;8.80;5.40;;;;;;;-0.43;94.99;100386.02;1751979;82;23534;-78
2020/12/02 04:36:28;;;;;;;9.15;5.17;;;;;;;-0.42;94.98;100386.31;1751956;81;21085;-80
2020/12/02 04:38:56;;;;;;;9.78;5.72;;;;;;;-0.41;94.96;100383.91;1752050;82;21493;-79
2020/12/02 04:41:23;;;;;;;11.25;5.05;;;;;;;-0.41;94.93;100383.91;1751922;82;22063;-78
2020/12/02 04:43:53;;;;;;;8.88;5.42;;;;;;;-0.42;94.87;100381.74;1724774;82;21093;-78
2020/12/02 04:46:26;;;;;;;10.10;5.40;;;;;;;-0.41;94.87;100385.27;1752033;82;22217;-77
2020/12/02 04:48:57;;;;;;;8.75;5.35;;;;;;;-0.43;94.85;100388.70;1752157;81;21497;-77
2020/12/02 04:51:26;;;;;;;13.35;7.05;;;;;;;-0.44;94.84;100380.31;1751928;81;21085;-76
2020/12/02 04:53:58;;;;;;;30.60;12.65;;;;;;;-0.43;94.96;100380.62;1752013;82;21104;-76
2020/12/02 04:56:26;;;;;;;37.67;17.80;;;;;;;-0.42;94.94;100384.97;1752317;81;21049;-76
2020/12/02 04:58:56;;;;;;;24.55;13.10;;;;;;;-0.42;94.82;100382.27;1752000;82;21211;-76
2020/12/02 05:01:30;;;;;;;47.17;23.55;;;;;;;-0.42;94.83;100381.74;1751954;82;21484;-76
2020/12/02 05:04:04;;;;;;;40.70;19.40;;;;;;;-0.40;94.86;100384.22;1752103;82;21479;-76
2020/12/02 05:06:46;;;;;;;33.78;18.27;;;;;;;-0.40;94.87;100386.39;1751969;81;21220;-70
2020/12/02 05:09:24;;;;;;;34.92;19.75;;;;;;;-0.40;94.78;100384.22;1747570;82;21085;-75
2020/12/02 05:12:04;;;;;;;39.50;20.25;;;;;;;-0.42;94.70;100382.27;1761961;81;21402;-76
2020/12/02 05:14:42;;;;;;;26.65;13.18;;;;;;;-0.44;94.66;100384.36;1763682;80;21590;-72
2020/12/02 05:17:20;;;;;;;19.50;9.60;;;;;;;-0.47;94.53;100392.91;1763122;81;21211;-74
2020/12/02 05:20:18;;;;;;;33.88;16.95;;;;;;;-0.52;94.52;100385.48;1763687;81;21146;-75
2020/12/02 05:22:51;;;;;;;31.27;16.30;;;;;;;-0.53;94.53;100388.39;1764202;81;21455;-74
2020/12/02 05:25:28;;;;;;;22.02;11.10;;;;;;;-0.52;94.59;100392.74;1764201;81;21330;-79
2020/12/02 05:28:36;;;;;;;18.12;8.48;;;;;;;-0.52;94.61;100394.09;1763998;81;21068;-76
2020/12/02 05:31:21;;;;;;;17.70;7.97;;;;;;;-0.53;94.58;100395.96;1696492;81;21105;-76
2020/12/02 05:33:49;;;;;;;18.50;8.35;;;;;;;-0.56;94.59;100392.89;1763580;81;20987;-77
2020/12/02 05:36:35;;;;;;;14.23;7.33;;;;;;;-0.57;94.68;100397.98;1764179;81;21479;-76
2020/12/02 05:39:11;;;;;;;14.28;7.78;;;;;;;-0.58;94.66;100399.87;1764167;81;21372;-79
2020/12/02 05:41:38;;;;;;;14.93;7.37;;;;;;;-0.57;94.63;100393.41;1763872;81;21056;-76
2020/12/02 05:44:14;;;;;;;13.70;7.22;;;;;;;-0.57;94.59;100396.63;1763828;80;21008;-75
2020/12/02 05:46:47;;;;;;;16.65;8.50;;;;;;;-0.53;94.69;100395.14;1712346;81;21666;-74
2020/12/02 05:49:37;;;;;;;13.53;7.17;;;;;;;-0.56;94.60;100399.11;1764015;81;21058;-77
2020/12/02 05:52:17;;;;;;;18.50;8.40;;;;;;;-0.56;94.63;100393.71;1764144;81;22233;-77
2020/12/02 05:54:46;;;;;;;13.55;7.05;;;;;;;-0.55;94.70;100403.45;1764046;80;21079;-79
2020/12/02 05:57:16;;;;;;;19.32;9.58;;;;;;;-0.54;94.71;100401.58;1764059;81;21074;-74
2020/12/02 05:59:47;;;;;;;17.17;9.18;;;;;;;-0.53;94.67;100404.05;1764042;81;20897;-79
2020/12/02 06:02:15;;;;;;;22.58;10.72;;;;;;;-0.52;94.63;100404.88;1764188;81;21479;-78
2020/12/02 06:04:43;;;;;;;16.82;8.90;;;;;;;-0.51;94.65;100406.53;1764093;81;21196;-77
2020/12/02 06:07:11;;;;;;;29.40;13.58;;;;;;;-0.53;94.56;100405.41;1763994;81;20921;-77
2020/12/02 06:09:44;;;;;;;41.28;18.82;;;;;;;-0.53;94.53;100411.32;1764087;81;21033;-76
2020/12/02 06:12:23;;;;;;;50.88;22.85;;;;;;;-0.52;94.69;100410.27;1766727;81;21122;-78
2020/12/02 06:14:51;;;;;;;23.02;12.50;;;;;;;-0.50;94.68;100422.49;1767606;81;20993;-76
2020/12/02 06:17:30;;;;;;;23.05;12.05;;;;;;;-0.50;94.58;100423.84;1767518;80;21985;-78
2020/12/02 06:19:58;;;;;;;21.90;11.57;;;;;;;-0.52;94.54;100420.54;1767547;81;20988;-75
2020/12/02 06:22:50;;;;;;;19.55;10.25;;;;;;;-0.52;94.49;100423.76;1767578;81;20929;-74
2020/12/02 06:25:48;;;;;;;23.32;11.40;;;;;;;-0.52;94.51;100422.41;1767508;81;21043;-77
2020/12/02 06:28:31;;;;;;;20.50;10.70;;;;;;;-0.53;94.60;100424.28;1767569;81;20925;-76
2020/12/02 06:31:03;;;;;;;18.82;9.08;;;;;;;-0.54;94.62;100420.46;1765153;81;21393;-74
2020/12/02 06:33:35;;;;;;;19.62;9.88;;;;;;;-0.54;94.66;100419.94;1767652;81;20984;-74
2020/12/02 06:36:25;;;;;;;18.50;10.98;;;;;;;-0.55;94.73;100422.33;1767275;81;21061;-75
2020/12/02 06:39:13;;;;;;;19.98;10.80;;;;;;;-0.55;94.72;100421.50;1758249;81;21129;-79
2020/12/02 06:41:43;;;;;;;16.93;9.15;;;;;;;-0.54;94.77;100422.63;1767518;81;21557;-79
2020/12/02 06:44:19;;;;;;;16.07;9.08;;;;;;;-0.54;94.86;100420.46;1767507;81;21531;-77
2020/12/02 06:46:58;;;;;;;15.25;8.73;;;;;;;-0.50;94.95;100420.31;1767626;80;21502;-78
2020/12/02 06:49:29;;;;;;;18.12;10.32;;;;;;;-0.49;94.92;100420.62;1767573;81;21443;-78
2020/12/02 06:52:11;;;;;;;15.68;9.15;;;;;;;-0.47;94.98;100422.58;1767094;81;20940;-75
2020/12/02 06:54:41;;;;;;;17.95;8.88;;;;;;;-0.45;94.97;100427.22;1767551;81;21135;-74
2020/12/02 06:57:25;;;;;;;16.60;8.33;;;;;;;-0.44;94.88;100422.12;1769218;81;21547;-72
2020/12/02 06:59:59;;;;;;;15.10;8.00;;;;;;;-0.47;94.84;100424.75;1769045;81;21128;-72
2020/12/02 07:02:59;;;;;;;15.83;8.55;;;;;;;-0.47;94.82;100427.97;1769158;81;21060;-77
2020/12/02 07:05:43;;;;;;;16.00;8.58;;;;;;;-0.49;94.83;100426.84;1769257;81;21638;-75
2020/12/02 07:08:23;;;;;;;20.02;8.33;;;;;;;-0.47;94.95;100432.02;1769145;81;21115;-82
2020/12/02 07:10:59;;;;;;;16.17;7.95;;;;;;;-0.47;94.94;100432.84;1766708;81;22365;-78
2020/12/02 07:13:30;;;;;;;14.75;7.03;;;;;;;-0.47;94.97;100437.41;1757938;81;20993;-70
2020/12/02 07:15:58;;;;;;;15.78;8.40;;;;;;;-0.47;94.99;100431.49;1758184;81;20951;-71
2020/12/02 07:18:26;;;;;;;17.85;9.75;;;;;;;-0.46;95.02;100432.31;1758969;81;20962;-81
2020/12/02 07:21:17;;;;;;;17.57;9.28;;;;;;;-0.44;95.00;100428.88;1759089;81;21063;-84
2020/12/02 07:23:45;;;;;;;17.80;9.05;;;;;;;-0.44;94.98;100432.39;1732555;81;21279;-84
2020/12/02 07:26:13;;;;;;;14.13;6.67;;;;;;;-0.43;94.96;100429.17;1758169;81;21669;-74
2020/12/02 07:28:41;;;;;;;13.95;7.70;;;;;;;-0.43;94.91;100421.91;1732784;81;20942;-72
2020/12/02 07:31:17;;;;;;;39.75;15.05;;;;;;;-0.44;94.95;100428.34;1758122;81;21027;-72
2020/12/02 07:34:02;;;;;;;40.75;17.12;;;;;;;-0.43;94.99;100427.83;1758208;81;21114;-71
2020/12/02 07:36:32;;;;;;;40.90;19.37;;;;;;;-0.43;94.97;100430.00;1753774;81;21264;-74
2020/12/02 07:39:13;;;;;;;40.67;20.20;;;;;;;-0.43;94.91;100434.05;1758163;81;21140;-72
2020/12/02 07:41:52;;;;;;;18.70;9.83;;;;;;;-0.40;95.01;100432.78;1758368;81;21580;-73
2020/12/02 07:44:19;;;;;;;21.33;10.75;;;;;;;-0.37;95.06;100425.06;1757028;81;21645;-71
2020/12/02 07:46:48;;;;;;;21.65;10.95;;;;;;;-0.38;94.95;100426.63;1758101;81;21525;-74
2020/12/02 07:49:15;;;;;;;16.10;9.13;;;;;;;-0.38;95.00;100426.63;1758243;81;21497;-74
2020/12/02 07:52:10;;;;;;;17.67;8.80;;;;;;;-0.38;95.03;100438.78;1758026;81;21100;-73
2020/12/02 07:54:38;;;;;;;20.37;9.25;;;;;;;-0.39;95.01;100436.60;1696371;81;21087;-72
2020/12/02 07:57:06;;;;;;;13.80;8.25;;;;;;;-0.38;95.18;100434.73;1758192;81;21496;-72
2020/12/02 07:59:35;;;;;;;18.12;8.30;;;;;;;-0.38;95.16;100442.30;1709962;81;21172;-84
2020/12/02 08:02:14;;;;;;;23.45;10.60;;;;;;;-0.39;95.14;100437.95;1758248;81;21259;-68
2020/12/02 08:04:53;;;;;;;15.93;8.18;;;;;;;-0.41;95.07;100435.17;1732602;81;21564;-69
2020/12/02 08:07:20;;;;;;;24.65;10.55;;;;;;;-0.43;95.08;100442.14;1758177;81;21601;-68
2020/12/02 08:09:50;;;;;;;17.07;9.33;;;;;;;-0.45;95.00;100439.36;1732465;81;21086;-76
2020/12/02 08:12:27;;;;;;;23.45;9.33;;;;;;;-0.45;95.16;100433.44;1758045;81;21164;-77
2020/12/02 08:15:09;;;;;;;16.35;8.45;;;;;;;-0.46;95.13;100433.66;1758202;81;21369;-72
2020/12/02 08:17:39;;;;;;;31.07;13.08;;;;;;;-0.46;95.06;100433.66;1758274;81;20910;-74
2020/12/02 08:20:33;;;;;;;22.80;10.20;;;;;;;-0.44;95.18;100435.62;1758224;81;21469;-71
2020/12/02 08:23:10;;;;;;;32.73;12.03;;;;;;;-0.44;95.21;100425.65;1754948;81;21367;-72
2020/12/02 08:26:06;;;;;;;50.08;17.75;;;;;;;-0.47;95.01;100429.31;1741253;81;21548;-71
2020/12/02 08:28:36;;;;;;;28.05;11.43;;;;;;;-0.48;95.19;100431.71;1739990;81;21209;-73
2020/12/02 08:31:23;;;;;;;15.20;8.20;;;;;;;-0.46;95.31;100433.66;1740116;81;21193;-72
2020/12/02 08:34:19;;;;;;;18.10;8.90;;;;;;;-0.49;95.26;100433.58;1737153;82;21017;-74
2020/12/02 08:37:12;;;;;;;23.10;10.23;;;;;;;-0.48;95.35;100428.49;1737176;82;21504;-74
2020/12/02 08:39:41;;;;;;;;;;;;;;;-0.46;95.53;100422.35;1739803;82;21151;-75
2020/12/02 08:42:26;;;;;;;50.75;20.70;;;;;;;-0.44;95.39;100424.30;1737248;82;22274;-76
2020/12/02 08:45:17;;;;;;;29.15;13.85;;;;;;;-0.45;95.36;100420.48;1737099;82;21512;-75
2020/12/02 08:47:53;;;;;;;33.42;15.25;;;;;;;-0.41;95.38;100417.11;1733703;82;20965;-75
2020/12/02 08:50:25;;;;;;;30.68;14.83;;;;;;;-0.37;95.39;100416.97;1712273;82;20965;-74
2020/12/02 08:52:55;;;;;;;16.55;9.08;;;;;;;-0.30;95.40;100417.43;1737261;82;21483;-75
2020/12/02 08:55:22;;;;;;;18.27;9.85;;;;;;;-0.25;95.34;100413.02;1737154;82;21368;-75
2020/12/02 08:57:50;;;;;;;37.20;19.17;;;;;;;-0.27;95.10;100409.72;1737023;82;21020;-76
2020/12/02 09:00:19;;;;;;;17.35;9.33;;;;;;;-0.26;95.03;100414.06;1737143;82;20969;-73
2020/12/02 09:02:47;;;;;;;19.80;9.73;;;;;;;-0.26;94.91;100412.71;1737148;82;20902;-76
2020/12/02 09:05:15;;;;;;;13.48;7.58;;;;;;;-0.23;94.86;100410.09;1737149;82;21516;-75
2020/12/02 09:07:43;;;;;;;13.68;7.67;;;;;;;-0.24;94.64;100411.96;1737211;82;22349;-75
2020/12/02 09:10:10;;;;;;;12.20;7.20;;;;;;;-0.26;94.62;100414.06;1737056;82;21001;-75
2020/12/02 09:12:38;;;;;;;12.95;7.53;;;;;;;-0.27;94.68;100415.11;1757349;80;20929;-79
2020/12/02 09:15:06;;;;;;;10.55;6.00;;;;;;;-0.27;94.66;100411.06;1766214;81;21060;-76
2020/12/02 09:17:33;;;;;;;10.45;6.05;;;;;;;-0.26;94.54;100412.71;1766356;81;21468;-75
2020/12/02 09:20:00;;;;;;;13.22;7.17;;;;;;;-0.27;94.42;100412.41;1766335;81;22110;-75
2020/12/02 09:22:28;;;;;;;16.05;7.58;;;;;;;-0.28;94.43;100409.94;1766240;81;21072;-76
2020/12/02 09:24:55;;;;;;;18.62;8.98;;;;;;;-0.31;94.43;100409.03;1766232;81;21567;-76
2020/12/02 09:27:23;;;;;;;19.02;8.75;;;;;;;-0.36;94.36;100404.31;1766176;81;21143;-76
2020/12/02 09:29:50;;;;;;;16.40;7.42;;;;;;;-0.35;94.45;100403.26;1766227;81;21170;-76
2020/12/02 09:32:17;;;;;;;15.00;7.80;;;;;;;-0.33;94.50;100403.86;1766231;81;21389;-76
2020/12/02 09:34:46;;;;;;;13.48;7.50;;;;;;;-0.30;94.55;100402.59;1766202;81;21511;-76
2020/12/02 09:37:14;;;;;;;14.80;7.55;;;;;;;-0.28;94.61;100406.72;1766177;81;20941;-76
2020/12/02 09:39:42;;;;;;;14.15;8.05;;;;;;;-0.27;94.54;100403.48;1766207;81;21063;-76
2020/12/02 09:42:55;;;;;;;13.95;8.28;;;;;;;-0.27;94.51;100402.97;1766228;81;21135;-76
2020/12/02 09:45:40;;;;;;;16.20;7.92;;;;;;;-0.24;94.47;100397.13;1766320;81;26756;-77
2020/12/02 09:48:16;;;;;;;16.70;9.40;;;;;;;-0.20;94.53;100399.67;1766290;81;21080;-77
2020/12/02 09:50:43;;;;;;;13.72;7.70;;;;;;;-0.18;94.51;100395.41;1766595;81;20922;-76
2020/12/02 09:53:28;;;;;;;16.35;8.45;;;;;;;-0.18;94.57;100394.88;1766217;81;21127;-77
2020/12/02 09:56:03;;;;;;;15.43;8.43;;;;;;;-0.12;94.56;100397.20;1873680;76;22757;-75
2020/12/02 09:58:31;;;;;;;16.67;8.33;;;;;;;-0.13;94.54;100391.50;1838839;78;21474;-77
2020/12/02 10:01:03;;;;;;;15.08;9.05;;;;;;;-0.10;94.40;100390.53;1841717;78;21244;-75
2020/12/02 10:04:07;;;;;;;19.40;9.23;;;;;;;-0.12;94.16;100392.63;1841911;77;21482;-79
2020/12/02 10:07:07;;;;;;;13.68;7.70;;;;;;;-0.12;94.05;100397.20;1841653;78;21261;-80
2020/12/02 10:10:16;;;;;;;14.13;8.18;;;;;;;-0.17;94.03;100391.12;1822519;78;21039;-75
2020/12/02 10:13:16;;;;;;;15.63;8.83;;;;;;;-0.22;93.87;100392.84;1836142;76;20921;-75
2020/12/02 10:15:55;;;;;;;17.20;9.25;;;;;;;-0.22;94.06;100396.37;1777792;80;21476;-76
2020/12/02 10:18:51;;;;;;;18.85;9.35;;;;;;;-0.18;94.13;100396.75;1758385;80;21544;-76
2020/12/02 10:21:57;;;;;;;27.17;11.08;;;;;;;-0.19;93.96;100399.97;1778197;79;21138;-77
2020/12/02 10:25:00;;;;;;;31.17;13.58;;;;;;;-0.21;93.98;100403.42;1761818;81;21151;-76
2020/12/02 10:28:09;;;;;;;19.20;9.50;;;;;;;-0.26;93.84;100395.70;1762948;81;21719;-76
2020/12/02 10:30:51;;;;;;;17.05;8.43;;;;;;;-0.27;93.80;100396.22;1736515;82;21556;-76
2020/12/02 10:33:56;;;;;;;13.68;7.97;;;;;;;-0.27;93.64;100401.62;1873603;76;22080;-75
2020/12/02 10:36:34;;;;;;;19.10;10.05;;;;;;;-0.35;93.67;100393.81;1841787;77;20861;-77
2020/12/02 10:39:08;;;;;;;18.23;8.30;;;;;;;-0.36;93.81;100394.34;1841731;78;21372;-76
2020/12/02 10:42:16;;;;;;;16.50;9.08;;;;;;;-0.37;93.80;100395.91;1840912;78;21470;-76
2020/12/02 10:45:17;;;;;;;15.70;8.48;;;;;;;-0.39;93.68;100392.61;1841817;78;21471;-77
2020/12/02 10:48:29;;;;;;;18.55;9.68;;;;;;;-0.41;93.56;100392.02;1841716;77;21473;-76
2020/12/02 10:50:57;;;;;;;20.00;10.55;;;;;;;-0.41;93.72;100388.79;1841986;78;20920;-77
2020/12/02 10:53:25;;;;;;;18.98;11.28;;;;;;;-0.41;93.64;100387.97;1841755;78;22232;-77
2020/12/02 10:55:54;;;;;;;20.82;11.22;;;;;;;-0.41;93.80;100383.39;1841639;78;20897;-78
2020/12/02 10:58:25;;;;;;;19.82;11.10;;;;;;;-0.37;93.90;100384.59;1841606;78;20988;-76
2020/12/02 11:01:01;;;;;;;19.57;10.43;;;;;;;-0.32;93.80;100388.50;1842030;78;21451;-77
2020/12/02 11:03:34;;;;;;;19.90;10.98;;;;;;;-0.29;93.63;100387.52;1841790;78;21125;-76
2020/12/02 11:06:28;;;;;;;19.07;10.90;;;;;;;-0.26;93.50;100383.03;1841837;78;26435;-77
2020/12/02 11:09:28;;;;;;;23.62;11.75;;;;;;;-0.25;93.37;100387.91;1841532;78;20956;-77
2020/12/02 11:12:14;;;;;;;23.62;11.90;;;;;;;-0.23;93.29;100382.58;1840876;77;20932;-76
2020/12/02 11:15:08;;;;;;;24.45;11.75;;;;;;;-0.21;93.00;100382.36;1841748;78;21530;-77
2020/12/02 11:18:27;;;;;;;25.35;13.18;;;;;;;-0.19;92.76;100382.44;1841703;78;21004;-76
2020/12/02 11:21:31;;;;;;;25.57;13.00;;;;;;;-0.18;92.66;100374.63;1841660;78;21185;-76
2020/12/02 11:24:22;;;;;;;24.72;11.55;;;;;;;-0.17;92.60;100376.28;1841592;78;20941;-78
2020/12/02 11:26:51;;;;;;;24.32;13.10;;;;;;;-0.19;92.44;100375.69;1831774;76;21600;-76
2020/12/02 11:29:20;;;;;;;22.35;12.40;;;;;;;-0.21;92.21;100375.61;1788115;78;21032;-76
2020/12/02 11:32:17;;;;;;;26.85;12.70;;;;;;;-0.19;92.23;100372.98;1776524;79;21039;-76
2020/12/02 11:34:56;;;;;;;21.60;11.60;;;;;;;-0.17;92.32;100373.59;1804085;78;22255;-78
2020/12/02 11:38:04;;;;;;;27.03;15.83;;;;;;;-0.11;92.39;100382.13;1843564;75;27899;-77
2020/12/02 11:40:44;;;;;;;28.92;14.33;;;;;;;-0.11;92.23;100379.44;1784611;79;20912;-76
2020/12/02 11:43:32;;;;;;;29.72;15.08;;;;;;;-0.09;91.98;100380.56;1808703;79;21355;-77
2020/12/02 11:46:00;;;;;;;28.70;13.95;;;;;;;-0.11;91.96;100378.09;1808640;79;20947;-77
2020/12/02 11:48:37;;;;;;;29.65;15.05;;;;;;;-0.15;91.70;100378.76;1808716;78;20932;-77
2020/12/02 11:51:27;;;;;;;28.83;14.73;;;;;;;-0.18;91.84;100376.51;1728428;82;20962;-77
2020/12/02 11:54:00;;;;;;;31.10;14.83;;;;;;;-0.21;92.04;100379.13;1751375;82;20988;-77
2020/12/02 11:56:39;;;;;;;30.32;15.30;;;;;;;-0.23;91.98;100377.19;1751332;82;21366;-77